Time;durP1;ratioP1;P1;durP2;ratioP2;P2;SDS_P1;SDS_P2;PMS_P1;PMS_P2;Temp;Humidity;BMP_temperature;BMP_pressure;BME280_temperature;BME280_humidity;BME280_pressure;Samples;Min_cycle;Max_cycle;Signal;HPM_P1;HPM_P2
2023/03/04 00:00:30;;;;;;;;;;;-1.30;99.90;;;-2.06;100.00;98372.34;4975254;28;1547;-81
2023/03/04 00:02:57;;;;;;;;;;;-1.30;99.90;;;-1.99;100.00;98377.56;4979990;28;1481;-81
2023/03/04 00:05:24;;;;;;;;;;;-1.30;99.90;;;-2.07;100.00;98384.22;4975275;28;1628;-80
2023/03/04 00:07:51;;;;;;;;;;;-1.30;99.90;;;-2.13;100.00;98382.38;4977958;28;1352;-81
2023/03/04 00:10:20;;;;;;;;;;;-1.30;99.90;;;-2.11;100.00;98396.00;4977887;28;1609;-81
2023/03/04 00:12:48;;;;;;;;;;;-1.30;99.90;;;-2.11;100.00;98380.72;4979864;28;1498;-81
2023/03/04 00:15:15;;;;;;;;;;;-1.30;99.90;;;-2.05;100.00;98392.72;4976914;28;1443;-81
2023/03/04 00:17:44;;;;;;;;;;;-1.20;99.90;;;-2.14;100.00;98390.00;4977172;28;1895;-81
2023/03/04 00:20:12;;;;;;;;;;;-1.30;99.90;;;-2.15;100.00;98383.19;4975962;28;1349;-81
2023/03/04 00:22:39;;;;;;;;;;;-1.30;99.90;;;-2.24;100.00;98386.38;4980819;28;1407;-81
2023/03/04 00:25:06;;;;;;;;;;;-1.40;99.90;;;-2.30;100.00;98376.09;4973505;28;1434;-81
2023/03/04 00:27:33;;;;;;;;;;;-1.40;99.90;;;-2.30;100.00;98381.19;4977771;28;1391;-80
2023/03/04 00:30:00;;;;;;;;;;;-1.50;99.90;;;-2.36;100.00;98375.97;4973600;28;1397;-81
2023/03/04 00:32:28;;;;;;;;;;;-1.50;99.90;;;-2.36;100.00;98376.81;4977709;28;1497;-81
2023/03/04 00:34:55;;;;;;;;;;;-1.60;99.90;;;-2.38;100.00;98370.84;4973966;28;1540;-81
2023/03/04 00:37:22;;;;;;;;;;;-1.60;99.90;;;-2.48;100.00;98380.78;4962230;28;1900;-80
2023/03/04 00:39:50;;;;;;;;;;;-1.60;99.90;;;-2.59;100.00;98386.47;4973722;28;1404;-80
2023/03/04 00:42:17;;;;;;;;;;;-1.60;99.90;;;-2.68;100.00;98378.66;4980689;28;1485;-80
2023/03/04 00:44:45;;;;;;;;;;;-1.80;99.90;;;-2.82;100.00;98385.09;4978258;28;1371;-84
2023/03/04 00:47:11;;;;;;;;;;;-1.90;99.90;;;-2.78;100.00;98380.13;4978767;28;1647;-81
2023/03/04 00:49:39;;;;;;;;;;;-1.90;99.90;;;-2.74;100.00;98387.00;4979231;28;1544;-79
2023/03/04 00:52:07;;;;;;;;;;;-1.90;99.90;;;-2.69;100.00;98376.94;4964623;28;1552;-80
2023/03/04 00:54:34;;;;;;;;;;;-1.90;99.90;;;-2.64;100.00;98383.00;4975807;28;1448;-81
2023/03/04 00:57:03;;;;;;;;;;;-1.90;99.90;;;-2.66;100.00;98381.25;4976617;28;1906;-80
2023/03/04 00:59:30;;;;;;;;;;;-1.90;99.90;;;-2.68;100.00;98380.34;4971928;28;1359;-80
2023/03/04 01:01:57;;;;;;;;;;;-1.90;99.90;;;-2.57;100.00;98381.44;4977270;28;1438;-80
2023/03/04 01:04:25;;;;;;;;;;;-1.80;99.90;;;-2.58;100.00;98385.69;4976804;28;1083;-80
2023/03/04 01:06:53;;;;;;;;;;;-1.90;99.90;;;-2.57;100.00;98384.84;4974440;28;1362;-81
2023/03/04 01:09:19;;;;;;;;;;;-1.80;99.90;;;-2.68;100.00;98382.88;4974357;28;1463;-80
2023/03/04 01:11:48;;;;;;;;;;;-1.90;99.90;;;-2.77;100.00;98383.53;4974886;28;1419;-80
2023/03/04 01:14:15;;;;;;;;;;;-2.00;99.90;;;-2.89;100.00;98380.72;4974640;28;1403;-80
2023/03/04 01:16:44;;;;;;;;;;;-2.00;99.90;;;-2.85;100.00;98380.81;4975067;28;1926;-80
2023/03/04 01:19:11;;;;;;;;;;;-2.10;99.90;;;-2.91;100.00;98378.13;4961626;28;1409;-81
2023/03/04 01:21:39;;;;;;;;;;;-2.10;99.90;;;-2.87;100.00;98372.31;4961757;28;1379;-80
2023/03/04 01:24:08;;;;;;;;;;;-2.10;99.90;;;-2.89;100.00;98373.94;4973409;28;1510;-80
2023/03/04 01:26:35;;;;;;;;;;;-2.10;99.90;;;-2.83;100.00;98373.22;4975933;28;1174;-80
2023/03/04 01:29:02;;;;;;;;;;;-2.10;99.90;;;-2.90;100.00;98369.66;4958797;28;1385;-81
2023/03/04 01:31:29;;;;;;;;;;;-2.10;99.90;;;-2.83;100.00;98366.47;4975714;28;1957;-80
2023/03/04 01:33:57;;;;;;;;;;;-2.10;99.90;;;-2.87;100.00;98356.19;4973357;28;1512;-80
2023/03/04 01:36:26;;;;;;;;;;;-2.10;99.90;;;-2.86;100.00;98355.38;4976795;28;2339;-81
2023/03/04 01:38:53;;;;;;;;;;;-2.20;99.90;;;-2.85;100.00;98357.06;4987616;28;1214;-80
2023/03/04 01:41:23;;;;;;;;;;;-2.20;99.90;;;-2.88;100.00;98351.94;4978112;28;1275;-81
2023/03/04 01:43:50;;;;;;;;;;;-2.10;99.90;;;-3.02;100.00;98344.00;4991832;28;1536;-81
2023/03/04 01:46:19;;;;;;;;;;;-2.20;99.90;;;-3.07;100.00;98348.97;4975516;28;976;-80
2023/03/04 01:48:47;;;;;;;;;;;-2.20;99.90;;;-3.11;100.00;98346.31;4977938;28;1399;-80
2023/03/04 01:51:19;;;;;;;;;;;-2.20;99.90;;;-3.03;100.00;98343.13;4981533;28;1461;-81
2023/03/04 01:53:52;;;;;;;;;;;-2.20;99.90;;;-3.08;100.00;98341.31;4977453;28;1436;-81
2023/03/04 01:56:30;;;;;;;;;;;-2.20;99.90;;;-3.06;100.00;98337.97;4958359;28;1487;-81
2023/03/04 01:59:20;;;;;;;;;;;-2.20;99.90;;;-3.14;100.00;98336.94;4978860;28;1388;-80
2023/03/04 02:01:52;;;;;;;;;;;-2.30;99.90;;;-3.20;100.00;98331.72;4976362;28;1323;-81
2023/03/04 02:04:24;;;;;;;;;;;-2.30;99.90;;;-3.27;100.00;98334.94;4976279;28;1352;-81
2023/03/04 02:06:51;;;;;;;;;;;-2.30;99.90;;;-3.23;100.00;98327.44;4991721;28;1388;-80
2023/03/04 02:09:19;;;;;;;;;;;-2.40;99.90;;;-3.13;100.00;98330.19;4958010;28;1296;-81
2023/03/04 02:11:50;;;;;;;;;;;-2.30;99.90;;;-3.13;100.00;98335.25;4977425;28;1384;-82
2023/03/04 02:14:19;;;;;;;;;;;-2.30;99.90;;;-3.14;100.00;98336.09;4972393;28;1396;-81
2023/03/04 02:16:47;;;;;;;;;;;-2.30;99.90;;;-3.11;100.00;98328.53;4973808;28;1966;-81
2023/03/04 02:19:39;;;;;;;;;;;-2.30;99.90;;;-3.13;100.00;98333.56;4977311;28;1257;-81
2023/03/04 02:22:07;;;;;;;;;;;-2.30;99.90;;;-3.13;100.00;98328.50;4970590;28;1340;-81
2023/03/04 02:24:48;;;;;;;;;;;-2.30;99.90;;;-3.13;100.00;98331.03;4956314;28;1388;-81
2023/03/04 02:27:15;;;;;;;;;;;-2.30;99.90;;;-3.09;100.00;98329.44;4960400;28;1659;-81
2023/03/04 02:29:42;;;;;;;;;;;-2.30;99.90;;;-3.03;100.00;98329.59;4980386;28;1439;-81
2023/03/04 02:32:13;;;;;;;;;;;-2.30;99.90;;;-3.00;100.00;98324.56;4983133;28;1636;-81
2023/03/04 02:34:46;;;;;;;;;;;-2.20;99.90;;;-2.98;100.00;98318.69;4973538;28;1446;-81
2023/03/04 02:37:15;;;;;;;;;;;-2.30;99.90;;;-3.01;100.00;98315.22;4977574;28;1956;-80
2023/03/04 02:39:46;;;;;;;;;;;-2.30;99.90;;;-3.10;100.00;98308.28;4960013;28;1443;-81
2023/03/04 02:42:17;;;;;;;;;;;-2.20;99.90;;;-3.02;100.00;98314.38;4962501;28;1391;-80
2023/03/04 02:44:48;;;;;;;;;;;-2.20;99.90;;;-3.03;100.00;98311.81;4960622;28;1682;-81
2023/03/04 02:47:17;;;;;;;;;;;-2.30;99.90;;;-3.05;100.00;98300.75;4979680;28;1351;-81
2023/03/04 02:49:45;;;;;;;;;;;-2.30;99.90;;;-3.11;100.00;98308.22;4963643;28;1423;-80
2023/03/04 02:52:17;;;;;;;;;;;-2.30;99.90;;;-3.23;100.00;98304.56;4976660;28;1428;-81
2023/03/04 02:54:47;;;;;;;;;;;-2.40;99.90;;;-3.13;100.00;98305.63;4987976;28;1318;-80
2023/03/04 02:57:15;;;;;;;;;;;-2.40;99.90;;;-3.14;100.00;98306.47;4976911;28;1988;-80
2023/03/04 02:59:42;;;;;;;;;;;-2.40;99.90;;;-3.05;100.00;98313.47;4961476;28;1521;-81
2023/03/04 03:02:10;;;;;;;;;;;-2.30;99.90;;;-3.16;100.00;98311.50;4978821;28;1435;-80
2023/03/04 03:04:38;;;;;;;;;;;-2.40;99.90;;;-3.15;100.00;98309.81;4979050;28;1148;-80
2023/03/04 03:07:05;;;;;;;;;;;-2.40;99.90;;;-3.23;100.00;98313.88;4971942;28;1360;-81
2023/03/04 03:09:32;;;;;;;;;;;-2.40;99.90;;;-3.30;100.00;98306.94;4963654;28;1386;-80
2023/03/04 03:12:00;;;;;;;;;;;-2.40;99.90;;;-3.25;100.00;98308.75;4962862;28;1455;-80
2023/03/04 03:14:27;;;;;;;;;;;-2.50;99.90;;;-3.27;100.00;98307.84;4977902;28;1407;-80
2023/03/04 03:16:54;;;;;;;;;;;-2.50;99.90;;;-3.30;100.00;98302.72;4981669;28;1907;-81
2023/03/04 03:19:21;;;;;;;;;;;-2.50;99.90;;;-3.25;100.00;98307.91;4978275;28;1356;-81
2023/03/04 03:21:49;;;;;;;;;;;-2.50;99.90;;;-3.27;100.00;98297.69;4978857;28;1412;-81
2023/03/04 03:24:16;;;;;;;;;;;-2.50;99.90;;;-3.20;100.00;98297.03;4976982;28;1390;-80
2023/03/04 03:26:43;;;;;;;;;;;-2.50;99.90;;;-3.16;100.00;98297.97;4979774;28;1413;-81
2023/03/04 03:29:10;;;;;;;;;;;-2.50;99.90;;;-3.19;100.00;98296.22;4975543;28;1387;-80
2023/03/04 03:31:36;;;;;;;;;;;-2.50;99.90;;;-3.30;100.00;98291.72;4964826;28;1611;-80
2023/03/04 03:34:03;;;;;;;;;;;-2.50;99.90;;;-3.40;100.00;98293.16;4977027;28;1547;-80
2023/03/04 03:36:30;;;;;;;;;;;-2.60;99.90;;;-3.46;100.00;98293.88;4976391;28;1333;-81
2023/03/04 03:38:57;;;;;;;;;;;-2.60;99.90;;;-3.48;100.00;98298.06;4972472;28;2004;-80
2023/03/04 03:41:25;;;;;;;;;;;-2.60;99.90;;;-3.58;100.00;98302.06;4979643;28;1716;-80
2023/03/04 03:43:52;;;;;;;;;;;-2.70;99.90;;;-3.46;100.00;98298.09;4974470;28;1313;-80
2023/03/04 03:46:22;;;;;;;;;;;-2.70;99.90;;;-3.39;100.00;98299.97;4978860;28;1419;-81
2023/03/04 03:48:49;;;;;;;;;;;-2.60;99.90;;;-3.46;100.00;98296.41;4973918;28;1192;-80
2023/03/04 03:51:16;;;;;;;;;;;-2.60;99.90;;;-3.48;100.00;98300.59;4977079;28;1468;-80
2023/03/04 03:53:43;;;;;;;;;;;-2.70;99.90;;;-3.47;100.00;98302.28;4979969;28;1441;-81
2023/03/04 03:56:10;;;;;;;;;;;-2.60;99.90;;;-3.40;100.00;98301.66;4975687;28;1436;-81
2023/03/04 03:58:37;;;;;;;;;;;-2.60;99.90;;;-3.34;100.00;98307.69;4974191;28;1887;-80
2023/03/04 04:01:05;;;;;;;;;;;-2.60;99.90;;;-3.32;100.00;98304.34;4974875;28;1469;-80
2023/03/04 04:03:33;;;;;;;;;;;-2.60;99.90;;;-3.29;100.00;98306.09;4974098;28;1707;-80
2023/03/04 04:06:03;;;;;;;;;;;-2.60;99.90;;;-3.32;100.00;98301.81;4986055;28;1541;-80
2023/03/04 04:08:32;;;;;;;;;;;-2.50;99.90;;;-3.37;100.00;98313.56;4976811;28;1089;-81
2023/03/04 04:11:00;;;;;;;;;;;-2.60;99.90;;;-3.34;100.00;98310.22;4948074;28;1583;-80
2023/03/04 04:13:28;;;;;;;;;;;-2.60;99.90;;;-3.33;100.00;98307.72;4974703;28;1616;-80
2023/03/04 04:15:55;;;;;;;;;;;-2.60;99.90;;;-3.29;100.00;98304.41;4964035;28;1750;-81
2023/03/04 04:18:24;;;;;;;;;;;-2.60;99.90;;;-3.38;100.00;98307.59;4973332;28;1887;-80
2023/03/04 04:20:52;;;;;;;;;;;-2.60;99.90;;;-3.41;100.00;98310.06;4978610;28;1532;-81
2023/03/04 04:23:19;;;;;;;;;;;-2.70;99.90;;;-3.39;100.00;98298.28;4963299;28;1428;-80
2023/03/04 04:25:47;;;;;;;;;;;-2.60;99.90;;;-3.42;100.00;98305.81;4972994;28;1438;-81
2023/03/04 04:28:18;;;;;;;;;;;-2.70;99.90;;;-3.39;100.00;98305.88;4976135;28;1022;-81
2023/03/04 04:30:45;;;;;;;;;;;-2.70;99.90;;;-3.39;100.00;98305.03;4964076;28;1350;-80
2023/03/04 04:33:12;;;;;;;;;;;-2.70;99.90;;;-3.42;100.00;98298.22;4985348;28;1442;-81
2023/03/04 04:35:40;;;;;;;;;;;-2.70;99.90;;;-3.38;100.00;98301.66;4981067;28;1082;-80
2023/03/04 04:38:08;;;;;;;;;;;-2.70;99.90;;;-3.43;100.00;98301.56;4976988;28;1915;-79
2023/03/04 04:40:35;;;;;;;;;;;-2.70;99.90;;;-3.45;100.00;98300.66;4975291;28;1792;-80
2023/03/04 04:43:02;;;;;;;;;;;-2.70;99.90;;;-3.45;100.00;98297.25;4978403;28;1408;-80
2023/03/04 04:45:29;;;;;;;;;;;-2.70;99.90;;;-3.49;100.00;98296.34;4980068;28;1481;-79
2023/03/04 04:47:56;;;;;;;;;;;-2.70;99.90;;;-3.54;100.00;98295.34;4962846;28;1397;-80
2023/03/04 04:50:25;;;;;;;;;;;-2.80;99.90;;;-3.67;100.00;98300.94;4975026;28;2024;-81
2023/03/04 04:52:53;;;;;;;;;;;-2.90;99.90;;;-3.68;100.00;98296.69;4965959;28;1198;-81
2023/03/04 04:55:21;;;;;;;;;;;-2.90;99.90;;;-3.68;100.00;98300.09;4966439;28;1532;-80
2023/03/04 04:57:48;;;;;;;;;;;-3.00;99.90;;;-3.75;100.00;98295.69;4979735;28;1983;-81
2023/03/04 05:00:17;;;;;;;;;;;-2.90;99.90;;;-3.67;100.00;98293.31;4976063;28;1420;-81
2023/03/04 05:02:44;;;;;;;;;;;-2.90;99.90;;;-3.58;100.00;98294.44;4966219;28;1093;-80
2023/03/04 05:05:14;;;;;;;;;;;-2.90;99.90;;;-3.63;100.00;98295.97;4975388;28;1208;-81
2023/03/04 05:07:43;;;;;;;;;;;-2.90;99.90;;;-3.70;100.00;98306.78;4979155;28;1720;-81
2023/03/04 05:10:10;;;;;;;;;;;-2.90;99.90;;;-3.67;100.00;98303.47;4981429;28;1459;-80
2023/03/04 05:12:37;;;;;;;;;;;-2.90;99.90;;;-3.76;100.00;98308.31;4960530;28;1513;-81
2023/03/04 05:15:07;;;;;;;;;;;-3.00;99.90;;;-3.86;100.00;98300.47;4966506;28;1575;-81
2023/03/04 05:17:35;;;;;;;;;;;-3.00;99.90;;;-3.81;100.00;98298.94;4976201;28;1977;-80
2023/03/04 05:20:03;;;;;;;;;;;-3.10;99.90;;;-3.96;100.00;98303.59;4981909;28;1375;-81
2023/03/04 05:22:30;;;;;;;;;;;-3.10;99.90;;;-3.94;100.00;98298.56;4980635;28;1753;-80
2023/03/04 05:24:57;;;;;;;;;;;-3.10;99.90;;;-3.84;100.00;98303.91;4959644;28;1716;-81
2023/03/04 05:27:23;;;;;;;;;;;-3.10;99.90;;;-3.89;100.00;98299.56;4975897;28;1450;-80
2023/03/04 05:29:54;;;;;;;;;;;-3.00;99.90;;;-3.89;100.00;98310.53;4977708;28;1597;-81
2023/03/04 05:32:21;;;;;;;;;;;-3.00;99.90;;;-3.86;100.00;98305.53;4966532;28;1058;-80
2023/03/04 05:34:48;;;;;;;;;;;-3.00;99.90;;;-3.83;100.00;98308.19;4977813;28;1447;-79
2023/03/04 05:37:16;;;;;;;;;;;-3.00;99.90;;;-3.86;100.00;98305.53;4975332;28;1183;-80
2023/03/04 05:39:43;;;;;;;;;;;-3.00;99.90;;;-3.82;100.00;98311.56;4976055;28;1887;-80
2023/03/04 05:42:11;;;;;;;;;;;-3.00;99.90;;;-3.81;100.00;98310.72;4978580;28;1345;-80
2023/03/04 05:44:40;;;;;;;;;;;-2.90;99.90;;;-3.76;100.00;98309.19;4990748;28;1393;-80
2023/03/04 05:47:07;;;;;;;;;;;-2.90;99.90;;;-3.78;100.00;98309.16;4976321;28;1147;-80
2023/03/04 05:49:34;;;;;;;;;;;-2.90;99.90;;;-3.68;100.00;98315.31;4970693;28;1493;-80
2023/03/04 05:52:02;;;;;;;;;;;-2.90;99.90;;;-3.70;100.00;98313.56;4976846;28;1515;-81
2023/03/04 05:54:29;;;;;;;;;;;-2.80;99.90;;;-3.80;100.00;98312.47;4975081;28;1396;-80
2023/03/04 05:56:56;;;;;;;;;;;-2.90;99.90;;;-3.70;100.00;98316.94;4973987;28;1392;-81
2023/03/04 05:59:25;;;;;;;;;;;-2.80;99.90;;;-3.65;100.00;98307.78;4974963;28;1891;-80
2023/03/04 06:01:52;;;;;;;;;;;-2.80;99.90;;;-3.64;100.00;98306.97;4969271;28;1415;-80
2023/03/04 06:04:19;;;;;;;;;;;-2.80;99.90;;;-3.64;100.00;98306.09;4990294;28;1539;-81
2023/03/04 06:06:46;;;;;;;;;;;-2.70;99.90;;;-3.56;100.00;98309.69;4975169;28;1650;-81
2023/03/04 06:09:13;;;;;;;;;;;-2.70;99.90;;;-3.58;100.00;98308.78;4977253;28;1295;-80
2023/03/04 06:11:41;;;;;;;;;;;-2.70;99.90;;;-3.54;100.00;98312.25;4967635;28;1368;-81
2023/03/04 06:14:11;;;;;;;;;;;-2.60;99.90;;;-3.60;100.00;98315.53;4963823;28;1067;-80
2023/03/04 06:16:38;;;;;;;;;;;-2.60;99.90;;;-3.44;100.00;98314.22;4975353;28;1085;-79
2023/03/04 06:19:06;;;;;;;;;;;-2.60;99.90;;;-3.53;100.00;98314.00;4978598;28;1950;-81
2023/03/04 06:21:34;;;;;;;;;;;-2.60;99.90;;;-3.54;100.00;98319.88;4977057;28;1056;-80
2023/03/04 06:24:01;;;;;;;;;;;-2.60;99.90;;;-3.47;100.00;98309.91;4976100;28;1435;-80
2023/03/04 06:26:28;;;;;;;;;;;-2.50;99.90;;;-3.40;100.00;98313.44;4968422;28;1541;-81
2023/03/04 06:28:56;;;;;;;;;;;-2.50;99.90;;;-3.32;100.00;98308.59;4982023;28;1454;-81
2023/03/04 06:31:23;;;;;;;;;;;-2.40;99.90;;;-3.24;100.00;98323.19;4980488;28;1258;-80
2023/03/04 06:33:50;;;;;;;;;;;-2.30;99.90;;;-3.13;100.00;98320.88;4980203;28;1399;-80
2023/03/04 06:36:17;;;;;;;;;;;-2.30;99.90;;;-2.93;100.00;98328.13;4961627;28;1487;-81
2023/03/04 06:38:44;;;;;;;;;;;-2.10;99.90;;;-2.92;100.00;98319.66;4978772;28;1911;-82
2023/03/04 06:41:12;;;;;;;;;;;-1.90;99.90;;;-2.76;100.00;98327.66;4978784;28;1695;-81
2023/03/04 06:43:39;;;;;;;;;;;-1.80;99.90;;;-2.60;100.00;98333.94;4978141;28;1447;-81
2023/03/04 06:46:07;;;;;;;;;;;-1.70;99.90;;;-2.42;100.00;98336.00;4994155;28;1403;-82
2023/03/04 06:48:34;;;;;;;;;;;-1.50;99.90;;;-2.36;100.00;98328.50;4959968;28;1031;-82
2023/03/04 06:51:06;;;;;;;;;;;-1.40;99.90;;;-2.05;100.00;98330.78;4980666;28;1994;-82
2023/03/04 06:53:33;;;;;;;;;;;-1.20;99.90;;;-2.04;100.00;98333.38;4984325;28;1704;-81
2023/03/04 06:56:00;;;;;;;;;;;-1.00;99.90;;;-1.88;100.00;98338.78;4973989;28;1405;-81
2023/03/04 06:58:29;;;;;;;;;;;-0.90;99.90;;;-1.65;100.00;98337.50;4957066;28;1899;-81
2023/03/04 07:00:56;;;;;;;;;;;-0.70;99.90;;;-1.45;100.00;98337.84;4978804;28;1619;-81
2023/03/04 07:03:22;;;;;;;;;;;-0.50;99.90;;;-1.40;100.00;98333.69;4977440;28;1613;-81
2023/03/04 07:05:51;;;;;;;;;;;-0.40;99.90;;;-1.24;100.00;98344.16;4976604;28;1380;-81
2023/03/04 07:08:18;;;;;;;;;;;-0.30;99.90;;;-1.12;100.00;98345.22;4975536;28;1301;-81
2023/03/04 07:10:48;;;;;;;;;;;-0.10;99.90;;;-1.01;100.00;98347.91;4976706;28;1428;-81
2023/03/04 07:13:15;;;;;;;;;;;0.00;99.90;;;-0.90;100.00;98341.28;4979802;28;1287;-82
2023/03/04 07:15:46;;;;;;;;;;;0.10;99.90;;;-0.76;100.00;98349.13;4975491;28;1364;-81
2023/03/04 07:18:12;;;;;;;;;;;0.20;99.90;;;-0.68;100.00;98351.81;4979681;28;1875;-81
2023/03/04 07:20:39;;;;;;;;;;;0.40;99.90;;;-0.63;100.00;98353.59;4978898;28;1218;-81
2023/03/04 07:23:06;;;;;;;;;;;0.40;99.90;;;-0.52;100.00;98358.84;4976692;28;1388;-81
2023/03/04 07:25:33;;;;;;;;;;;0.50;99.90;;;-0.41;100.00;98359.00;4977196;28;1501;-81
2023/03/04 07:28:00;;;;;;;;;;;0.60;99.90;;;-0.38;100.00;98366.69;4982324;28;1415;-81
2023/03/04 07:30:27;;;;;;;;;;;0.70;99.90;;;-0.25;100.00;98366.00;4981070;28;1253;-81
2023/03/04 07:32:57;;;;;;;;;;;0.80;99.90;;;-0.26;100.00;98371.09;4972896;28;1423;-82
2023/03/04 07:35:24;;;;;;;;;;;0.90;99.90;;;-0.15;100.00;98374.63;4984449;28;1282;-81
2023/03/04 07:37:52;;;;;;;;;;;0.90;99.90;;;-0.01;100.00;98372.25;4981431;28;9145;-81
2023/03/04 07:40:21;;;;;;;;;;;1.10;99.90;;;-0.03;100.00;98376.47;4981845;28;1922;-81
2023/03/04 07:42:49;;;;;;;;;;;1.10;99.90;;;-0.01;100.00;98377.34;4964581;28;1400;-81
2023/03/04 07:45:17;;;;;;;;;;;1.20;99.90;;;0.02;100.00;98369.72;4982520;28;1446;-82
2023/03/04 07:47:44;;;;;;;;;;;1.20;99.90;;;0.26;100.00;98374.28;4980750;28;1388;-82
2023/03/04 07:50:11;;;;;;;;;;;1.30;99.90;;;0.26;100.00;98370.88;4980162;28;1392;-82
2023/03/04 07:52:44;;;;;;;;;;;1.40;99.90;;;0.27;100.00;98372.56;4979438;28;1458;-81
2023/03/04 07:55:13;;;;;;;;;;;1.50;99.90;;;0.35;100.00;98373.53;4978520;28;1699;-82
2023/03/04 07:57:41;;;;;;;;;;;1.50;99.90;;;0.36;100.00;98360.75;4980774;28;1386;-81
2023/03/04 08:00:11;;;;;;;;;;;1.50;99.90;;;0.38;100.00;98364.19;4977198;28;1891;-81
2023/03/04 08:02:41;;;;;;;;;;;1.70;99.90;;;0.36;100.00;98368.41;4981050;28;1523;-81
2023/03/04 08:05:08;;;;;;;;;;;1.80;99.90;;;0.36;100.00;98367.56;4975433;28;1630;-81
2023/03/04 08:07:35;;;;;;;;;;;1.80;99.90;;;0.46;100.00;98363.41;4974231;28;1680;-81
2023/03/04 08:10:04;;;;;;;;;;;1.80;99.90;;;0.47;100.00;98355.75;4975976;28;1926;-81
2023/03/04 08:12:31;;;;;;;;;;;1.80;99.90;;;0.58;100.00;98353.31;4971242;28;1382;-81
2023/03/04 08:15:00;;;;;;;;;;;1.80;99.90;;;0.58;100.00;98349.06;4974161;28;1443;-81
2023/03/04 08:17:28;;;;;;;;;;;2.00;99.90;;;0.69;100.00;98343.22;4947980;28;1694;-81
2023/03/04 08:19:55;;;;;;;;;;;2.00;99.90;;;0.78;100.00;98345.84;4971760;28;1970;-81
2023/03/04 08:22:22;;;;;;;;;;;2.00;99.90;;;0.70;100.00;98338.09;4978702;28;1485;-81
2023/03/04 08:24:50;;;;;;;;;;;2.00;99.90;;;0.94;100.00;98339.16;4971547;28;1594;-81
2023/03/04 08:27:17;;;;;;;;;;;2.10;99.90;;;0.96;100.00;98337.47;4968124;28;1069;-81
2023/03/04 08:29:45;;;;;;;;;;;2.20;99.90;;;1.17;100.00;98329.94;4955808;28;1378;-81
2023/03/04 08:32:14;;;;;;;;;;;2.30;99.90;;;1.15;100.00;98325.69;4969653;28;1524;-81
2023/03/04 08:34:42;;;;;;;;;;;2.30;99.90;;;0.98;100.00;98328.97;4977183;28;1454;-79
2023/03/04 08:37:09;;;;;;;;;;;2.30;99.90;;;1.12;100.00;98330.75;4976483;28;1013;-81
2023/03/04 08:39:36;;;;;;;;;;;2.40;99.90;;;1.06;100.00;98323.06;4973774;28;1910;-81
2023/03/04 08:42:03;;;;;;;;;;;2.60;99.90;;;1.11;100.00;98332.47;4976721;28;1064;-81
2023/03/04 08:44:31;;;;;;;;;;;2.60;99.90;;;1.29;100.00;98325.75;4973542;28;1399;-81
2023/03/04 08:46:58;;;;;;;;;;;2.60;99.90;;;1.24;100.00;98321.47;4979696;28;1517;-82
2023/03/04 08:49:25;;;;;;;;;;;2.60;99.90;;;1.46;100.00;98322.47;4962576;28;1327;-82
2023/03/04 08:51:52;;;;;;;;;;;2.70;99.90;;;1.53;100.00;98330.16;4974760;28;1419;-81
2023/03/04 08:54:20;;;;;;;;;;;2.90;99.90;;;1.76;100.00;98328.59;4971456;28;1391;-81
2023/03/04 08:56:47;;;;;;;;;;;3.00;99.90;;;1.58;100.00;98319.13;4972646;28;1150;-81
2023/03/04 08:59:14;;;;;;;;;;;3.00;99.90;;;1.53;100.00;98310.56;4979749;28;1986;-81
2023/03/04 09:01:42;;;;;;;;;;;3.10;99.90;;;1.58;100.00;98314.00;4973966;28;1048;-81
2023/03/04 09:04:10;;;;;;;;;;;3.00;99.90;;;1.77;100.00;98314.94;4988373;28;1504;-80
2023/03/04 09:06:37;;;;;;;;;;;3.00;99.90;;;1.47;100.00;98315.63;4978355;28;1445;-80
2023/03/04 09:09:03;;;;;;;;;;;3.00;99.90;;;1.53;100.00;98317.34;4971950;28;1341;-80
2023/03/04 09:11:30;;;;;;;;;;;3.10;99.90;;;1.65;100.00;98320.00;4965515;28;1120;-80
2023/03/04 09:13:58;;;;;;;;;;;3.10;99.90;;;1.67;100.00;98315.75;4974673;28;1578;-80
2023/03/04 09:16:27;;;;;;;;;;;3.10;99.90;;;1.73;100.00;98315.75;4968185;28;1037;-80
2023/03/04 09:18:54;;;;;;;;;;;3.10;99.90;;;1.56;100.00;98315.69;4972313;28;1908;-79
2023/03/04 09:21:22;;;;;;;;;;;3.10;99.90;;;1.76;100.00;98300.44;4970913;28;2463;-80
2023/03/04 09:23:49;;;;;;;;;;;3.10;99.90;;;1.74;100.00;98316.63;4971067;28;1388;-80
2023/03/04 09:26:27;;;;;;;;;;;3.00;99.90;;;1.68;100.00;98305.50;4974088;28;1451;-80
2023/03/04 09:28:56;;;;;;;;;;;3.10;99.90;;;1.99;100.00;98305.63;4977058;28;1557;-80
2023/03/04 09:31:24;;;;;;;;;;;3.20;99.90;;;1.99;100.00;98318.44;4955891;28;1407;-81
2023/03/04 09:33:52;;;;;;;;;;;3.20;99.90;;;2.05;100.00;98309.91;4974009;28;1551;-80
2023/03/04 09:36:20;;;;;;;;;;;3.30;99.90;;;1.84;100.00;98313.25;4972418;28;1080;-80
2023/03/04 09:38:47;;;;;;;;;;;3.20;99.90;;;1.85;100.00;98313.25;4962492;28;1910;-80
2023/03/04 09:41:19;;;;;;;;;;;3.20;99.90;;;1.95;100.00;98303.06;4974406;28;1515;-80
2023/03/04 09:43:47;;;;;;;;;;;3.20;99.90;;;2.03;100.00;98316.72;4967699;28;2003;-80
2023/03/04 09:46:18;;;;;;;;;;;3.30;99.90;;;1.99;100.00;98315.03;4957051;28;1408;-80
2023/03/04 09:48:50;;;;;;;;;;;3.30;99.90;;;2.04;100.00;98319.28;4952858;28;1418;-80
2023/03/04 09:51:34;;;;;;;;;;;3.40;99.90;;;1.91;100.00;98317.53;4956995;28;1737;-79
2023/03/04 09:54:08;;;;;;;;;;;3.30;99.90;;;1.97;100.00;98315.00;4967219;28;1711;-80
2023/03/04 09:56:38;;;;;;;;;;;3.30;99.90;;;1.97;100.00;98315.00;4971166;28;1608;-81
2023/03/04 09:59:11;;;;;;;;;;;3.30;99.90;;;1.86;100.00;98321.78;4970102;28;1970;-81
2023/03/04 10:02:25;;;;;;;;;;;3.20;99.90;;;1.98;100.00;98323.53;4972547;28;1409;-81
2023/03/04 10:04:55;;;;;;;;;;;3.40;99.90;;;2.07;100.00;98321.00;4957544;28;1448;-80
2023/03/04 10:07:26;;;;;;;;;;;3.40;99.90;;;2.16;100.00;98321.03;4971740;28;1680;-81
2023/03/04 10:10:01;;;;;;;;;;;3.40;99.90;;;2.10;100.00;98326.16;4953458;28;1362;-80
2023/03/04 10:12:30;;;;;;;;;;;3.50;99.90;;;2.24;100.00;98321.06;4956706;28;1385;-80
2023/03/04 10:15:06;;;;;;;;;;;3.60;99.90;;;2.23;100.00;98322.75;4969275;28;1381;-80
2023/03/04 10:17:36;;;;;;;;;;;3.50;99.90;;;2.45;100.00;98318.53;4972675;28;1619;-81
2023/03/04 10:20:23;;;;;;;;;;;3.70;99.90;;;2.29;100.00;98322.78;4964567;28;1985;-80
2023/03/04 10:22:55;;;;;;;;;;;3.60;99.90;;;2.49;100.00;98317.72;4972327;28;1795;-81
2023/03/04 10:25:28;;;;;;;;;;;3.80;99.90;;;2.56;100.00;98320.28;4970969;28;1663;-81
2023/03/04 10:28:09;;;;;;;;;;;3.90;99.90;;;2.82;100.00;98315.16;4960354;28;1380;-80
2023/03/04 10:30:54;;;;;;;;;;;4.00;99.90;;;2.53;100.00;98317.69;4973601;28;1364;-81
2023/03/04 10:33:25;;;;;;;;;;;4.10;99.90;;;2.64;100.00;98310.88;4954059;28;1512;-81
2023/03/04 10:36:14;;;;;;;;;;;4.00;99.90;;;2.54;100.00;98320.28;4974034;28;1455;-81
2023/03/04 10:38:44;;;;;;;;;;;4.00;99.90;;;2.45;100.00;98315.97;4976490;28;1587;-81
2023/03/04 10:41:17;;;;;;;;;;;3.90;99.90;;;2.42;100.00;98312.59;4975977;28;1381;-81
2023/03/04 10:43:49;;;;;;;;;;;3.90;99.90;;;2.51;100.00;98312.59;4963869;28;1606;-81
2023/03/04 10:46:16;;;;;;;;;;;3.90;99.90;;;2.48;100.00;98315.13;4970546;28;1571;-81
2023/03/04 10:48:44;;;;;;;;;;;3.80;99.90;;;2.43;100.00;98304.88;4978343;28;1515;-81
2023/03/04 10:51:18;;;;;;;;;;;3.80;99.90;;;2.75;100.00;98308.31;4976097;28;1580;-81
2023/03/04 10:53:46;;;;;;;;;;;4.00;99.90;;;2.72;100.00;98309.19;4976990;28;2188;-81
2023/03/04 10:56:35;;;;;;;;;;;4.10;99.90;;;2.76;100.00;98300.66;4968574;28;1527;-80
2023/03/04 10:59:24;;;;;;;;;;;4.20;99.90;;;2.77;100.00;98304.06;4977590;28;1891;-81
2023/03/04 11:01:55;;;;;;;;;;;4.20;99.90;;;2.59;100.00;98297.22;4979936;28;1297;-81
2023/03/04 11:04:31;;;;;;;;;;;4.20;99.90;;;2.64;100.00;98295.50;4980863;28;1662;-81
2023/03/04 11:06:57;;;;;;;;;;;4.10;99.90;;;2.94;100.00;98294.63;4982907;28;1420;-81
2023/03/04 11:09:30;;;;;;;;;;;4.20;99.90;;;2.90;100.00;98291.25;4979546;28;1683;-81
2023/03/04 11:12:00;;;;;;;;;;;4.30;99.90;;;2.70;100.00;98293.78;4985967;28;1355;-80
2023/03/04 11:14:30;;;;;;;;;;;4.20;99.90;;;2.66;100.00;98293.78;4977247;28;2138;-80
2023/03/04 11:17:01;;;;;;;;;;;4.20;99.90;;;2.73;100.00;98291.22;4961675;28;1732;-80
2023/03/04 11:19:37;;;;;;;;;;;4.10;99.90;;;2.85;100.00;98287.81;4976533;28;2005;-81
2023/03/04 11:22:05;;;;;;;;;;;4.10;99.90;;;2.88;100.00;98292.94;4975388;28;1387;-81
2023/03/04 11:24:33;;;;;;;;;;;4.20;99.90;;;2.77;100.00;98281.00;4967445;28;1492;-81
2023/03/04 11:27:15;;;;;;;;;;;4.10;99.90;;;2.93;100.00;98275.84;4978604;28;1409;-80
2023/03/04 11:29:52;;;;;;;;;;;4.20;99.90;;;3.01;100.00;98280.97;4982515;28;1441;-81